sensor_id;sensor_type;location;lat;lon;timestamp;P1;durP1;ratioP1;P2;durP2;ratioP2
19664;SDS011;9980;51.020;7.772;2022-11-20T00:01:28;11.67;;;9.20;;
19664;SDS011;9980;51.020;7.772;2022-11-20T00:03:55;12.47;;;9.33;;
19664;SDS011;9980;51.020;7.772;2022-11-20T00:06:23;11.50;;;9.23;;
19664;SDS011;9980;51.020;7.772;2022-11-20T00:08:50;10.70;;;9.50;;
19664;SDS011;9980;51.020;7.772;2022-11-20T00:11:20;11.70;;;9.87;;
19664;SDS011;9980;51.020;7.772;2022-11-20T00:13:50;11.33;;;9.60;;
19664;SDS011;9980;51.020;7.772;2022-11-20T00:16:21;10.27;;;8.87;;
19664;SDS011;9980;51.020;7.772;2022-11-20T00:18:49;14.60;;;10.90;;
19664;SDS011;9980;51.020;7.772;2022-11-20T00:21:19;12.67;;;10.50;;
19664;SDS011;9980;51.020;7.772;2022-11-20T00:23:50;11.97;;;10.03;;
19664;SDS011;9980;51.020;7.772;2022-11-20T00:26:20;12.63;;;10.20;;
19664;SDS011;9980;51.020;7.772;2022-11-20T00:28:49;11.67;;;9.27;;
19664;SDS011;9980;51.020;7.772;2022-11-20T00:31:21;15.73;;;10.27;;
19664;SDS011;9980;51.020;7.772;2022-11-20T00:33:48;13.30;;;10.83;;
19664;SDS011;9980;51.020;7.772;2022-11-20T00:36:16;10.87;;;9.40;;
19664;SDS011;9980;51.020;7.772;2022-11-20T00:38:45;11.33;;;10.10;;
19664;SDS011;9980;51.020;7.772;2022-11-20T00:41:13;13.90;;;10.97;;
19664;SDS011;9980;51.020;7.772;2022-11-20T00:43:41;12.93;;;9.63;;
19664;SDS011;9980;51.020;7.772;2022-11-20T00:46:15;14.17;;;9.83;;
19664;SDS011;9980;51.020;7.772;2022-11-20T00:48:45;13.40;;;10.87;;
19664;SDS011;9980;51.020;7.772;2022-11-20T00:51:13;13.47;;;10.43;;
19664;SDS011;9980;51.020;7.772;2022-11-20T00:53:42;17.70;;;12.00;;
19664;SDS011;9980;51.020;7.772;2022-11-20T00:56:10;11.40;;;9.33;;
19664;SDS011;9980;51.020;7.772;2022-11-20T00:58:40;13.73;;;11.17;;
19664;SDS011;9980;51.020;7.772;2022-11-20T01:01:10;13.73;;;10.77;;
19664;SDS011;9980;51.020;7.772;2022-11-20T01:03:41;14.03;;;11.30;;
19664;SDS011;9980;51.020;7.772;2022-11-20T01:06:12;13.90;;;10.67;;
19664;SDS011;9980;51.020;7.772;2022-11-20T01:08:42;13.67;;;11.00;;
19664;SDS011;9980;51.020;7.772;2022-11-20T01:11:17;13.23;;;10.97;;
19664;SDS011;9980;51.020;7.772;2022-11-20T01:13:53;14.03;;;11.20;;
19664;SDS011;9980;51.020;7.772;2022-11-20T01:16:23;15.10;;;11.27;;
19664;SDS011;9980;51.020;7.772;2022-11-20T01:18:59;13.10;;;11.37;;
19664;SDS011;9980;51.020;7.772;2022-11-20T01:21:32;12.93;;;10.43;;
19664;SDS011;9980;51.020;7.772;2022-11-20T01:24:02;12.07;;;10.57;;
19664;SDS011;9980;51.020;7.772;2022-11-20T01:26:31;14.30;;;10.90;;
19664;SDS011;9980;51.020;7.772;2022-11-20T01:29:01;12.80;;;10.57;;
19664;SDS011;9980;51.020;7.772;2022-11-20T01:31:29;13.73;;;10.80;;
19664;SDS011;9980;51.020;7.772;2022-11-20T01:34:02;15.40;;;11.53;;
19664;SDS011;9980;51.020;7.772;2022-11-20T01:36:38;11.60;;;9.80;;
19664;SDS011;9980;51.020;7.772;2022-11-20T01:39:13;12.40;;;10.77;;
19664;SDS011;9980;51.020;7.772;2022-11-20T01:41:46;12.30;;;9.57;;
19664;SDS011;9980;51.020;7.772;2022-11-20T01:47:17;11.73;;;10.50;;
19664;SDS011;9980;51.020;7.772;2022-11-20T01:49:54;11.70;;;10.00;;
19664;SDS011;9980;51.020;7.772;2022-11-20T01:53:12;12.53;;;10.13;;
19664;SDS011;9980;51.020;7.772;2022-11-20T01:55:25;13.03;;;10.60;;
19664;SDS011;9980;51.020;7.772;2022-11-20T01:58:01;13.43;;;10.53;;
19664;SDS011;9980;51.020;7.772;2022-11-20T02:00:29;11.63;;;10.20;;
19664;SDS011;9980;51.020;7.772;2022-11-20T02:02:57;15.10;;;9.47;;
19664;SDS011;9980;51.020;7.772;2022-11-20T02:05:35;11.83;;;9.63;;
19664;SDS011;9980;51.020;7.772;2022-11-20T02:08:28;11.87;;;9.40;;
19664;SDS011;9980;51.020;7.772;2022-11-20T02:11:22;11.10;;;9.50;;
19664;SDS011;9980;51.020;7.772;2022-11-20T02:13:48;12.33;;;10.90;;
19664;SDS011;9980;51.020;7.772;2022-11-20T02:18:50;12.57;;;10.53;;
19664;SDS011;9980;51.020;7.772;2022-11-20T02:24:02;12.07;;;10.57;;
19664;SDS011;9980;51.020;7.772;2022-11-20T02:26:35;13.83;;;11.30;;
19664;SDS011;9980;51.020;7.772;2022-11-20T02:32:17;12.70;;;10.03;;
19664;SDS011;9980;51.020;7.772;2022-11-20T02:35:06;14.40;;;11.17;;
19664;SDS011;9980;51.020;7.772;2022-11-20T02:37:54;14.30;;;11.00;;
19664;SDS011;9980;51.020;7.772;2022-11-20T02:40:28;12.07;;;10.30;;
19664;SDS011;9980;51.020;7.772;2022-11-20T02:42:55;15.73;;;11.93;;
19664;SDS011;9980;51.020;7.772;2022-11-20T02:45:22;12.77;;;9.83;;
19664;SDS011;9980;51.020;7.772;2022-11-20T02:47:50;14.33;;;11.60;;
19664;SDS011;9980;51.020;7.772;2022-11-20T02:50:16;11.47;;;10.07;;
19664;SDS011;9980;51.020;7.772;2022-11-20T02:52:43;15.60;;;11.67;;
19664;SDS011;9980;51.020;7.772;2022-11-20T02:55:09;14.13;;;10.70;;
19664;SDS011;9980;51.020;7.772;2022-11-20T02:57:36;13.27;;;10.77;;
19664;SDS011;9980;51.020;7.772;2022-11-20T03:00:03;14.17;;;10.97;;
19664;SDS011;9980;51.020;7.772;2022-11-20T03:02:30;12.47;;;10.40;;
19664;SDS011;9980;51.020;7.772;2022-11-20T03:04:57;13.10;;;10.57;;
19664;SDS011;9980;51.020;7.772;2022-11-20T03:07:23;13.07;;;10.23;;
19664;SDS011;9980;51.020;7.772;2022-11-20T03:09:50;13.87;;;10.63;;
19664;SDS011;9980;51.020;7.772;2022-11-20T03:12:16;13.77;;;11.40;;
19664;SDS011;9980;51.020;7.772;2022-11-20T03:14:42;11.63;;;9.27;;
19664;SDS011;9980;51.020;7.772;2022-11-20T03:17:08;14.93;;;11.67;;
19664;SDS011;9980;51.020;7.772;2022-11-20T03:19:35;15.67;;;11.60;;
19664;SDS011;9980;51.020;7.772;2022-11-20T03:22:01;13.90;;;11.00;;
19664;SDS011;9980;51.020;7.772;2022-11-20T03:24:27;12.33;;;10.27;;
19664;SDS011;9980;51.020;7.772;2022-11-20T03:26:53;11.37;;;9.50;;
19664;SDS011;9980;51.020;7.772;2022-11-20T03:29:19;13.40;;;11.80;;
19664;SDS011;9980;51.020;7.772;2022-11-20T03:31:46;15.03;;;11.63;;
19664;SDS011;9980;51.020;7.772;2022-11-20T03:34:13;13.37;;;10.77;;
19664;SDS011;9980;51.020;7.772;2022-11-20T03:36:39;14.77;;;11.67;;
19664;SDS011;9980;51.020;7.772;2022-11-20T03:39:08;13.63;;;10.13;;
19664;SDS011;9980;51.020;7.772;2022-11-20T03:41:36;14.60;;;11.60;;
19664;SDS011;9980;51.020;7.772;2022-11-20T03:44:06;16.00;;;12.07;;
19664;SDS011;9980;51.020;7.772;2022-11-20T03:46:34;15.20;;;11.77;;
19664;SDS011;9980;51.020;7.772;2022-11-20T03:49:01;14.47;;;11.83;;
19664;SDS011;9980;51.020;7.772;2022-11-20T03:51:32;17.83;;;12.27;;
19664;SDS011;9980;51.020;7.772;2022-11-20T03:54:02;15.53;;;12.10;;
19664;SDS011;9980;51.020;7.772;2022-11-20T03:56:33;18.90;;;12.33;;
19664;SDS011;9980;51.020;7.772;2022-11-20T03:59:02;14.83;;;11.80;;
19664;SDS011;9980;51.020;7.772;2022-11-20T04:01:31;15.70;;;12.33;;
19664;SDS011;9980;51.020;7.772;2022-11-20T04:04:01;16.20;;;11.37;;
19664;SDS011;9980;51.020;7.772;2022-11-20T04:06:37;15.20;;;11.60;;
19664;SDS011;9980;51.020;7.772;2022-11-20T04:09:04;16.23;;;12.27;;
19664;SDS011;9980;51.020;7.772;2022-11-20T04:11:32;14.27;;;11.30;;
19664;SDS011;9980;51.020;7.772;2022-11-20T04:14:02;15.20;;;11.17;;
19664;SDS011;9980;51.020;7.772;2022-11-20T04:16:32;12.90;;;10.37;;
19664;SDS011;9980;51.020;7.772;2022-11-20T04:19:03;19.93;;;12.53;;
19664;SDS011;9980;51.020;7.772;2022-11-20T04:21:32;17.83;;;12.77;;
19664;SDS011;9980;51.020;7.772;2022-11-20T04:23:58;15.80;;;12.30;;
19664;SDS011;9980;51.020;7.772;2022-11-20T04:26:25;17.50;;;12.87;;
19664;SDS011;9980;51.020;7.772;2022-11-20T04:28:54;17.70;;;12.43;;
19664;SDS011;9980;51.020;7.772;2022-11-20T04:31:22;14.17;;;11.70;;
19664;SDS011;9980;51.020;7.772;2022-11-20T04:33:54;17.63;;;12.80;;
19664;SDS011;9980;51.020;7.772;2022-11-20T04:36:24;16.80;;;11.83;;
19664;SDS011;9980;51.020;7.772;2022-11-20T04:38:53;18.67;;;11.63;;
19664;SDS011;9980;51.020;7.772;2022-11-20T04:41:23;16.13;;;11.47;;
19664;SDS011;9980;51.020;7.772;2022-11-20T04:43:57;14.10;;;11.47;;
19664;SDS011;9980;51.020;7.772;2022-11-20T04:46:29;16.20;;;12.27;;
19664;SDS011;9980;51.020;7.772;2022-11-20T04:49:01;11.57;;;9.70;;
19664;SDS011;9980;51.020;7.772;2022-11-20T04:51:27;16.90;;;12.03;;
19664;SDS011;9980;51.020;7.772;2022-11-20T04:53:54;16.43;;;12.30;;
19664;SDS011;9980;51.020;7.772;2022-11-20T04:56:20;17.20;;;11.77;;
19664;SDS011;9980;51.020;7.772;2022-11-20T04:58:46;13.60;;;10.53;;
19664;SDS011;9980;51.020;7.772;2022-11-20T05:01:20;13.80;;;11.60;;
19664;SDS011;9980;51.020;7.772;2022-11-20T05:03:49;18.53;;;13.37;;
19664;SDS011;9980;51.020;7.772;2022-11-20T05:06:17;18.13;;;12.10;;
19664;SDS011;9980;51.020;7.772;2022-11-20T05:08:45;17.43;;;12.00;;
19664;SDS011;9980;51.020;7.772;2022-11-20T05:11:13;18.03;;;12.30;;
19664;SDS011;9980;51.020;7.772;2022-11-20T05:13:42;21.70;;;12.83;;
19664;SDS011;9980;51.020;7.772;2022-11-20T05:16:10;13.83;;;10.47;;
19664;SDS011;9980;51.020;7.772;2022-11-20T05:18:40;16.33;;;12.37;;
19664;SDS011;9980;51.020;7.772;2022-11-20T05:21:08;19.60;;;13.83;;
19664;SDS011;9980;51.020;7.772;2022-11-20T05:23:36;20.90;;;12.93;;
19664;SDS011;9980;51.020;7.772;2022-11-20T05:26:03;18.57;;;13.60;;
19664;SDS011;9980;51.020;7.772;2022-11-20T05:28:31;18.40;;;13.37;;
19664;SDS011;9980;51.020;7.772;2022-11-20T05:31:09;14.63;;;11.60;;
19664;SDS011;9980;51.020;7.772;2022-11-20T05:33:41;17.60;;;12.50;;
19664;SDS011;9980;51.020;7.772;2022-11-20T05:36:09;17.17;;;12.57;;
19664;SDS011;9980;51.020;7.772;2022-11-20T05:38:40;16.17;;;11.73;;
19664;SDS011;9980;51.020;7.772;2022-11-20T05:41:11;16.17;;;12.20;;
19664;SDS011;9980;51.020;7.772;2022-11-20T05:43:42;18.67;;;11.93;;
19664;SDS011;9980;51.020;7.772;2022-11-20T05:46:11;20.97;;;14.30;;
19664;SDS011;9980;51.020;7.772;2022-11-20T05:48:40;15.73;;;11.87;;
19664;SDS011;9980;51.020;7.772;2022-11-20T05:51:09;20.07;;;14.10;;
19664;SDS011;9980;51.020;7.772;2022-11-20T05:53:38;24.60;;;14.30;;
19664;SDS011;9980;51.020;7.772;2022-11-20T05:56:13;19.67;;;13.67;;
19664;SDS011;9980;51.020;7.772;2022-11-20T05:58:42;16.43;;;12.57;;
19664;SDS011;9980;51.020;7.772;2022-11-20T06:03:37;16.93;;;13.30;;
19664;SDS011;9980;51.020;7.772;2022-11-20T06:06:05;18.27;;;12.03;;
19664;SDS011;9980;51.020;7.772;2022-11-20T06:08:32;18.63;;;13.53;;
19664;SDS011;9980;51.020;7.772;2022-11-20T06:11:02;20.07;;;14.10;;
19664;SDS011;9980;51.020;7.772;2022-11-20T06:13:35;20.00;;;12.23;;
19664;SDS011;9980;51.020;7.772;2022-11-20T06:16:07;15.60;;;12.00;;
19664;SDS011;9980;51.020;7.772;2022-11-20T06:18:35;21.83;;;14.80;;
19664;SDS011;9980;51.020;7.772;2022-11-20T06:21:02;19.83;;;14.53;;
19664;SDS011;9980;51.020;7.772;2022-11-20T06:23:36;18.80;;;13.97;;
19664;SDS011;9980;51.020;7.772;2022-11-20T06:26:04;20.63;;;14.20;;
19664;SDS011;9980;51.020;7.772;2022-11-20T06:28:38;22.77;;;15.43;;
19664;SDS011;9980;51.020;7.772;2022-11-20T06:31:05;19.00;;;13.80;;
19664;SDS011;9980;51.020;7.772;2022-11-20T06:33:32;14.77;;;12.03;;
19664;SDS011;9980;51.020;7.772;2022-11-20T06:35:59;18.10;;;13.37;;
19664;SDS011;9980;51.020;7.772;2022-11-20T06:38:32;20.07;;;14.20;;
19664;SDS011;9980;51.020;7.772;2022-11-20T06:40:58;21.93;;;14.17;;
19664;SDS011;9980;51.020;7.772;2022-11-20T06:43:26;19.10;;;14.27;;
19664;SDS011;9980;51.020;7.772;2022-11-20T06:45:54;21.97;;;14.57;;
19664;SDS011;9980;51.020;7.772;2022-11-20T06:48:23;20.67;;;14.40;;
19664;SDS011;9980;51.020;7.772;2022-11-20T06:50:51;19.67;;;13.37;;
19664;SDS011;9980;51.020;7.772;2022-11-20T06:53:18;20.37;;;13.73;;
19664;SDS011;9980;51.020;7.772;2022-11-20T06:55:45;16.60;;;12.20;;
19664;SDS011;9980;51.020;7.772;2022-11-20T06:58:13;14.00;;;11.27;;
19664;SDS011;9980;51.020;7.772;2022-11-20T07:00:41;19.20;;;13.93;;
19664;SDS011;9980;51.020;7.772;2022-11-20T07:03:09;16.33;;;12.07;;
19664;SDS011;9980;51.020;7.772;2022-11-20T07:05:37;18.20;;;13.07;;
19664;SDS011;9980;51.020;7.772;2022-11-20T07:08:04;20.17;;;11.47;;
19664;SDS011;9980;51.020;7.772;2022-11-20T07:10:31;18.17;;;13.00;;
19664;SDS011;9980;51.020;7.772;2022-11-20T07:12:58;17.97;;;13.20;;
19664;SDS011;9980;51.020;7.772;2022-11-20T07:15:25;24.33;;;17.20;;
19664;SDS011;9980;51.020;7.772;2022-11-20T07:17:51;15.93;;;12.33;;
19664;SDS011;9980;51.020;7.772;2022-11-20T07:20:18;16.50;;;12.13;;
19664;SDS011;9980;51.020;7.772;2022-11-20T07:22:44;13.90;;;11.30;;
19664;SDS011;9980;51.020;7.772;2022-11-20T07:25:11;14.47;;;11.80;;
19664;SDS011;9980;51.020;7.772;2022-11-20T07:27:37;11.43;;;10.10;;
19664;SDS011;9980;51.020;7.772;2022-11-20T07:30:03;12.33;;;10.43;;
19664;SDS011;9980;51.020;7.772;2022-11-20T07:32:30;15.60;;;11.30;;
19664;SDS011;9980;51.020;7.772;2022-11-20T07:34:56;19.00;;;14.43;;
19664;SDS011;9980;51.020;7.772;2022-11-20T07:37:22;18.50;;;14.30;;
19664;SDS011;9980;51.020;7.772;2022-11-20T07:39:52;20.37;;;13.37;;
19664;SDS011;9980;51.020;7.772;2022-11-20T07:42:18;16.00;;;11.90;;
19664;SDS011;9980;51.020;7.772;2022-11-20T07:44:45;16.40;;;12.63;;
19664;SDS011;9980;51.020;7.772;2022-11-20T07:47:11;15.23;;;11.87;;
19664;SDS011;9980;51.020;7.772;2022-11-20T07:49:37;15.20;;;11.03;;
19664;SDS011;9980;51.020;7.772;2022-11-20T07:52:03;16.10;;;13.43;;
19664;SDS011;9980;51.020;7.772;2022-11-20T07:54:30;14.53;;;12.23;;
19664;SDS011;9980;51.020;7.772;2022-11-20T07:56:57;15.40;;;11.70;;
19664;SDS011;9980;51.020;7.772;2022-11-20T07:59:23;15.43;;;12.27;;
19664;SDS011;9980;51.020;7.772;2022-11-20T08:01:49;11.70;;;9.77;;
19664;SDS011;9980;51.020;7.772;2022-11-20T08:04:16;16.53;;;12.83;;
19664;SDS011;9980;51.020;7.772;2022-11-20T08:06:42;13.03;;;10.50;;
19664;SDS011;9980;51.020;7.772;2022-11-20T08:09:08;14.90;;;11.63;;
19664;SDS011;9980;51.020;7.772;2022-11-20T08:11:35;17.83;;;12.70;;
19664;SDS011;9980;51.020;7.772;2022-11-20T08:14:19;14.23;;;11.57;;
19664;SDS011;9980;51.020;7.772;2022-11-20T08:16:47;14.57;;;11.40;;
19664;SDS011;9980;51.020;7.772;2022-11-20T08:19:15;14.90;;;11.13;;
19664;SDS011;9980;51.020;7.772;2022-11-20T08:21:46;13.03;;;9.90;;
19664;SDS011;9980;51.020;7.772;2022-11-20T08:24:15;13.97;;;11.00;;
19664;SDS011;9980;51.020;7.772;2022-11-20T08:26:44;14.77;;;11.50;;
19664;SDS011;9980;51.020;7.772;2022-11-20T08:29:10;13.30;;;11.10;;
19664;SDS011;9980;51.020;7.772;2022-11-20T08:31:37;15.17;;;11.90;;
19664;SDS011;9980;51.020;7.772;2022-11-20T08:34:03;14.13;;;11.10;;
19664;SDS011;9980;51.020;7.772;2022-11-20T08:36:34;16.30;;;11.00;;
19664;SDS011;9980;51.020;7.772;2022-11-20T08:39:01;11.80;;;10.23;;
19664;SDS011;9980;51.020;7.772;2022-11-20T08:41:29;15.50;;;11.60;;
19664;SDS011;9980;51.020;7.772;2022-11-20T08:43:59;13.90;;;10.33;;
19664;SDS011;9980;51.020;7.772;2022-11-20T08:46:39;15.80;;;11.87;;
19664;SDS011;9980;51.020;7.772;2022-11-20T08:49:09;13.27;;;10.50;;
19664;SDS011;9980;51.020;7.772;2022-11-20T08:51:38;15.47;;;12.50;;
19664;SDS011;9980;51.020;7.772;2022-11-20T08:54:05;15.73;;;12.40;;
19664;SDS011;9980;51.020;7.772;2022-11-20T08:56:32;15.33;;;11.50;;
19664;SDS011;9980;51.020;7.772;2022-11-20T08:58:59;14.97;;;11.87;;
19664;SDS011;9980;51.020;7.772;2022-11-20T09:01:45;14.90;;;11.77;;
19664;SDS011;9980;51.020;7.772;2022-11-20T09:04:12;16.53;;;13.63;;
19664;SDS011;9980;51.020;7.772;2022-11-20T09:06:39;18.97;;;13.57;;
19664;SDS011;9980;51.020;7.772;2022-11-20T09:09:07;16.87;;;12.80;;
19664;SDS011;9980;51.020;7.772;2022-11-20T09:11:34;12.57;;;10.10;;
19664;SDS011;9980;51.020;7.772;2022-11-20T09:14:01;13.00;;;10.50;;
19664;SDS011;9980;51.020;7.772;2022-11-20T09:16:28;14.93;;;11.33;;
19664;SDS011;9980;51.020;7.772;2022-11-20T09:18:54;14.27;;;11.60;;
19664;SDS011;9980;51.020;7.772;2022-11-20T09:21:40;16.63;;;11.77;;
19664;SDS011;9980;51.020;7.772;2022-11-20T09:24:06;15.87;;;11.50;;
19664;SDS011;9980;51.020;7.772;2022-11-20T09:26:33;18.00;;;12.57;;
19664;SDS011;9980;51.020;7.772;2022-11-20T09:28:59;14.63;;;11.10;;
19664;SDS011;9980;51.020;7.772;2022-11-20T09:31:25;16.00;;;11.90;;
19664;SDS011;9980;51.020;7.772;2022-11-20T09:33:52;22.20;;;14.10;;
19664;SDS011;9980;51.020;7.772;2022-11-20T09:36:18;16.23;;;11.00;;
19664;SDS011;9980;51.020;7.772;2022-11-20T09:38:44;22.43;;;12.80;;
19664;SDS011;9980;51.020;7.772;2022-11-20T09:44:24;54.27;;;23.67;;
19664;SDS011;9980;51.020;7.772;2022-11-20T09:50:22;20.13;;;13.10;;
19664;SDS011;9980;51.020;7.772;2022-11-20T09:53:18;17.90;;;13.63;;
19664;SDS011;9980;51.020;7.772;2022-11-20T09:56:03;21.87;;;15.33;;
19664;SDS011;9980;51.020;7.772;2022-11-20T09:58:35;27.80;;;17.50;;
19664;SDS011;9980;51.020;7.772;2022-11-20T10:01:18;22.17;;;14.90;;
19664;SDS011;9980;51.020;7.772;2022-11-20T10:03:58;28.67;;;17.93;;
19664;SDS011;9980;51.020;7.772;2022-11-20T10:06:44;18.27;;;12.97;;
19664;SDS011;9980;51.020;7.772;2022-11-20T10:09:50;17.17;;;11.97;;
19664;SDS011;9980;51.020;7.772;2022-11-20T10:12:47;17.70;;;13.40;;
19664;SDS011;9980;51.020;7.772;2022-11-20T10:15:55;15.67;;;11.90;;
19664;SDS011;9980;51.020;7.772;2022-11-20T10:21:42;15.73;;;11.87;;
19664;SDS011;9980;51.020;7.772;2022-11-20T10:24:42;17.20;;;13.30;;
19664;SDS011;9980;51.020;7.772;2022-11-20T10:30:54;26.80;;;17.57;;
19664;SDS011;9980;51.020;7.772;2022-11-20T10:33:29;24.40;;;16.77;;
19664;SDS011;9980;51.020;7.772;2022-11-20T10:36:36;20.33;;;14.17;;
19664;SDS011;9980;51.020;7.772;2022-11-20T10:39:16;15.13;;;12.73;;
19664;SDS011;9980;51.020;7.772;2022-11-20T10:41:54;18.57;;;13.23;;
19664;SDS011;9980;51.020;7.772;2022-11-20T10:44:26;14.63;;;11.27;;
19664;SDS011;9980;51.020;7.772;2022-11-20T10:47:17;16.00;;;12.33;;
19664;SDS011;9980;51.020;7.772;2022-11-20T10:49:51;13.87;;;11.23;;
19664;SDS011;9980;51.020;7.772;2022-11-20T10:55:30;12.87;;;10.33;;
19664;SDS011;9980;51.020;7.772;2022-11-20T10:58:30;12.70;;;10.30;;
19664;SDS011;9980;51.020;7.772;2022-11-20T11:01:25;13.37;;;10.27;;
19664;SDS011;9980;51.020;7.772;2022-11-20T11:03:53;12.07;;;10.50;;
19664;SDS011;9980;51.020;7.772;2022-11-20T11:06:37;15.03;;;11.33;;
19664;SDS011;9980;51.020;7.772;2022-11-20T11:09:13;13.73;;;11.07;;
19664;SDS011;9980;51.020;7.772;2022-11-20T11:11:45;12.80;;;10.53;;
19664;SDS011;9980;51.020;7.772;2022-11-20T11:14:15;13.03;;;10.97;;
19664;SDS011;9980;51.020;7.772;2022-11-20T11:16:51;12.10;;;10.60;;
19664;SDS011;9980;51.020;7.772;2022-11-20T11:19:23;16.40;;;10.97;;
19664;SDS011;9980;51.020;7.772;2022-11-20T11:21:54;15.17;;;11.60;;
19664;SDS011;9980;51.020;7.772;2022-11-20T11:24:27;13.20;;;10.57;;
19664;SDS011;9980;51.020;7.772;2022-11-20T11:27:11;15.23;;;11.50;;
19664;SDS011;9980;51.020;7.772;2022-11-20T11:29:43;15.27;;;11.30;;
19664;SDS011;9980;51.020;7.772;2022-11-20T11:32:12;14.93;;;11.27;;
19664;SDS011;9980;51.020;7.772;2022-11-20T11:35:03;14.37;;;12.03;;
19664;SDS011;9980;51.020;7.772;2022-11-20T11:37:36;11.37;;;10.17;;
19664;SDS011;9980;51.020;7.772;2022-11-20T11:40:05;14.23;;;11.17;;
19664;SDS011;9980;51.020;7.772;2022-11-20T11:42:54;14.90;;;12.00;;
19664;SDS011;9980;51.020;7.772;2022-11-20T11:45:54;14.10;;;11.77;;
19664;SDS011;9980;51.020;7.772;2022-11-20T11:48:21;16.53;;;11.67;;
19664;SDS011;9980;51.020;7.772;2022-11-20T11:50:48;13.70;;;11.23;;
19664;SDS011;9980;51.020;7.772;2022-11-20T11:53:18;12.07;;;10.30;;
19664;SDS011;9980;51.020;7.772;2022-11-20T11:58:46;16.13;;;12.03;;
19664;SDS011;9980;51.020;7.772;2022-11-20T12:04:13;15.50;;;12.00;;
19664;SDS011;9980;51.020;7.772;2022-11-20T12:07:03;18.03;;;12.87;;
19664;SDS011;9980;51.020;7.772;2022-11-20T12:10:14;11.93;;;10.60;;
19664;SDS011;9980;51.020;7.772;2022-11-20T12:16:10;16.20;;;11.57;;
19664;SDS011;9980;51.020;7.772;2022-11-20T12:18:39;16.10;;;12.47;;
19664;SDS011;9980;51.020;7.772;2022-11-20T12:21:11;19.30;;;12.37;;
19664;SDS011;9980;51.020;7.772;2022-11-20T12:44:33;18.53;;;12.67;;
19664;SDS011;9980;51.020;7.772;2022-11-20T12:53:44;16.17;;;12.63;;
19664;SDS011;9980;51.020;7.772;2022-11-20T13:05:59;17.80;;;13.17;;
19664;SDS011;9980;51.020;7.772;2022-11-20T13:08:39;19.57;;;13.33;;
19664;SDS011;9980;51.020;7.772;2022-11-20T13:11:44;15.90;;;12.47;;
19664;SDS011;9980;51.020;7.772;2022-11-20T13:14:24;16.00;;;11.97;;
19664;SDS011;9980;51.020;7.772;2022-11-20T13:18:05;19.27;;;14.07;;
19664;SDS011;9980;51.020;7.772;2022-11-20T13:20:15;18.97;;;14.73;;
19664;SDS011;9980;51.020;7.772;2022-11-20T13:22:48;19.93;;;14.10;;
19664;SDS011;9980;51.020;7.772;2022-11-20T13:25:23;20.30;;;14.77;;
19664;SDS011;9980;51.020;7.772;2022-11-20T13:28:01;22.27;;;16.20;;
19664;SDS011;9980;51.020;7.772;2022-11-20T13:30:51;19.57;;;15.17;;
19664;SDS011;9980;51.020;7.772;2022-11-20T13:33:32;20.67;;;14.80;;
19664;SDS011;9980;51.020;7.772;2022-11-20T13:36:05;19.97;;;15.10;;
19664;SDS011;9980;51.020;7.772;2022-11-20T13:38:54;23.00;;;15.97;;
19664;SDS011;9980;51.020;7.772;2022-11-20T13:41:32;18.83;;;13.10;;
19664;SDS011;9980;51.020;7.772;2022-11-20T13:44:23;19.90;;;14.83;;
19664;SDS011;9980;51.020;7.772;2022-11-20T13:47:03;23.30;;;14.90;;
19664;SDS011;9980;51.020;7.772;2022-11-20T13:49:47;22.40;;;15.83;;
19664;SDS011;9980;51.020;7.772;2022-11-20T13:55:38;20.33;;;15.07;;
19664;SDS011;9980;51.020;7.772;2022-11-20T13:58:36;20.17;;;14.83;;
19664;SDS011;9980;51.020;7.772;2022-11-20T14:01:29;22.27;;;15.93;;
19664;SDS011;9980;51.020;7.772;2022-11-20T14:03:57;19.00;;;14.17;;
19664;SDS011;9980;51.020;7.772;2022-11-20T14:06:32;22.73;;;15.17;;
19664;SDS011;9980;51.020;7.772;2022-11-20T14:09:12;22.90;;;15.53;;
19664;SDS011;9980;51.020;7.772;2022-11-20T14:11:52;21.37;;;15.33;;
19664;SDS011;9980;51.020;7.772;2022-11-20T14:14:19;16.93;;;13.03;;
19664;SDS011;9980;51.020;7.772;2022-11-20T14:16:49;21.03;;;14.80;;
19664;SDS011;9980;51.020;7.772;2022-11-20T14:21:54;20.17;;;14.77;;
19664;SDS011;9980;51.020;7.772;2022-11-20T14:24:34;21.23;;;15.10;;
19664;SDS011;9980;51.020;7.772;2022-11-20T14:27:00;19.90;;;15.17;;
19664;SDS011;9980;51.020;7.772;2022-11-20T14:29:37;22.00;;;15.83;;
19664;SDS011;9980;51.020;7.772;2022-11-20T14:32:06;22.67;;;15.47;;
19664;SDS011;9980;51.020;7.772;2022-11-20T14:34:41;19.60;;;14.43;;
19664;SDS011;9980;51.020;7.772;2022-11-20T14:37:13;20.10;;;14.27;;
19664;SDS011;9980;51.020;7.772;2022-11-20T14:39:53;18.10;;;13.90;;
19664;SDS011;9980;51.020;7.772;2022-11-20T14:42:23;20.70;;;14.73;;
19664;SDS011;9980;51.020;7.772;2022-11-20T14:44:55;22.43;;;16.07;;
19664;SDS011;9980;51.020;7.772;2022-11-20T14:47:25;24.57;;;18.50;;
19664;SDS011;9980;51.020;7.772;2022-11-20T14:49:56;19.07;;;13.93;;
19664;SDS011;9980;51.020;7.772;2022-11-20T14:52:25;21.23;;;15.20;;
19664;SDS011;9980;51.020;7.772;2022-11-20T14:54:54;20.57;;;16.10;;
19664;SDS011;9980;51.020;7.772;2022-11-20T15:02:46;27.50;;;18.07;;
19664;SDS011;9980;51.020;7.772;2022-11-20T15:05:15;25.60;;;18.53;;
19664;SDS011;9980;51.020;7.772;2022-11-20T15:07:46;22.20;;;15.80;;
19664;SDS011;9980;51.020;7.772;2022-11-20T15:10:20;35.40;;;23.87;;
19664;SDS011;9980;51.020;7.772;2022-11-20T15:12:56;24.13;;;17.47;;
19664;SDS011;9980;51.020;7.772;2022-11-20T15:15:41;27.70;;;17.90;;
19664;SDS011;9980;51.020;7.772;2022-11-20T15:18:18;32.70;;;21.83;;
19664;SDS011;9980;51.020;7.772;2022-11-20T15:20:48;28.60;;;20.30;;
19664;SDS011;9980;51.020;7.772;2022-11-20T15:23:17;31.87;;;20.50;;
19664;SDS011;9980;51.020;7.772;2022-11-20T15:25:44;28.67;;;20.23;;
19664;SDS011;9980;51.020;7.772;2022-11-20T15:28:19;32.50;;;21.70;;
19664;SDS011;9980;51.020;7.772;2022-11-20T15:30:54;28.97;;;21.43;;
19664;SDS011;9980;51.020;7.772;2022-11-20T15:33:21;25.03;;;18.73;;
19664;SDS011;9980;51.020;7.772;2022-11-20T15:35:48;26.43;;;18.10;;
19664;SDS011;9980;51.020;7.772;2022-11-20T15:38:14;31.30;;;21.33;;
19664;SDS011;9980;51.020;7.772;2022-11-20T15:40:40;26.30;;;17.87;;
19664;SDS011;9980;51.020;7.772;2022-11-20T15:43:07;24.60;;;18.73;;
19664;SDS011;9980;51.020;7.772;2022-11-20T15:45:45;27.67;;;19.90;;
19664;SDS011;9980;51.020;7.772;2022-11-20T15:48:18;33.63;;;25.77;;
19664;SDS011;9980;51.020;7.772;2022-11-20T15:53:54;29.43;;;20.13;;
19664;SDS011;9980;51.020;7.772;2022-11-20T15:56:21;27.13;;;18.93;;
19664;SDS011;9980;51.020;7.772;2022-11-20T15:58:47;21.73;;;15.40;;
19664;SDS011;9980;51.020;7.772;2022-11-20T16:01:15;28.60;;;19.20;;
19664;SDS011;9980;51.020;7.772;2022-11-20T16:03:44;27.87;;;18.30;;
19664;SDS011;9980;51.020;7.772;2022-11-20T16:06:11;25.17;;;17.83;;
19664;SDS011;9980;51.020;7.772;2022-11-20T16:08:37;25.17;;;17.57;;
19664;SDS011;9980;51.020;7.772;2022-11-20T16:11:04;25.87;;;16.70;;
19664;SDS011;9980;51.020;7.772;2022-11-20T16:13:31;19.40;;;14.60;;
19664;SDS011;9980;51.020;7.772;2022-11-20T16:18:55;25.43;;;17.73;;
19664;SDS011;9980;51.020;7.772;2022-11-20T16:21:23;29.57;;;20.07;;
19664;SDS011;9980;51.020;7.772;2022-11-20T16:24:00;30.17;;;19.53;;
19664;SDS011;9980;51.020;7.772;2022-11-20T16:26:30;20.27;;;15.53;;
19664;SDS011;9980;51.020;7.772;2022-11-20T16:29:00;15.07;;;11.40;;
19664;SDS011;9980;51.020;7.772;2022-11-20T16:31:29;23.13;;;15.50;;
19664;SDS011;9980;51.020;7.772;2022-11-20T16:33:57;23.13;;;15.50;;
19664;SDS011;9980;51.020;7.772;2022-11-20T16:36:26;18.73;;;13.97;;
19664;SDS011;9980;51.020;7.772;2022-11-20T16:38:55;20.47;;;13.03;;